Terminal Aerodrome Forecast
Issued by NWS

Home | Current Version | Previous Version | Text Only | Print | Product List | Glossary On
Versions: 1 2 3 4 5 6 7 8 9 10 11 12 13 14 15 16
000
FTUS46 KHNX 212342
TAFVIS
TAF
KVIS 212342Z 2200/2224 13008KT P6SM SCT050 BKN130
     FM220900 13012KT P6SM -RA OVC050
     FM221300 11015G25KT P6SM -RA SCT025 OVC035
     FM222100 14012KT P6SM -RA SCT025 OVC035=

USA.gov is the U.S. government's official web portal to all federal, state and local government web resources and services.